Joaquim Tavora, Brazil
Current Conditions -  °F | °C
As of 8:00 PM on Friday 28 Nov 2014 (Local Time) from SBLO Reporting Station
Few Clouds Few Clouds  
Wind Chill: 82°   Ceiling: Unl
Heat Index: 84°   Visibility: 6mi
Dew Point: 64°   Wind: 8mph
Humidity: 54%   Direction: 100°E
Pressure: 29.94"   Gusts: NA
Location:  23.5°S, 49.9°W
Report Text: SBLO 282200Z 10007KT 9999 FEW030 28/18 Q1014
Loading
Personal Weather Stations






























Interactive Weather Map New forecast layout! Learn more

10-Day Weather Forecast

Advertisements
Track Severe Weather on mobile